ADDS METAR Data INFO
IDs: Format: Raw Decoded Include TAF

Data at: 1820 UTC 20 Jul 2018

METAR for:LFQA (Reims/Prunay Aprt, --, FR)
Text:LFQA 201800Z AUTO VRB02KT 9999 TS ///CB 23/16 Q1011
Temperature: 23.0°C ( 73°F)
Dewpoint: 16.0°C ( 61°F) [RH = 65%]
Pressure (altimeter):29.85 inches Hg (1011.0 mb)
Winds:variable direction winds at 2 MPH (2 knots; 1.0 m/s)
Visibility:6 or more sm (10+ km)
Weather:TS (thunderstorm)

TAF for:LFQA (Reims/Prunay Aprt, --, FR)
Text:No data found